Pagina principale
METAR-TAF:

METAR-TAF

Aeroporti :

Amman, Giordania

latitudine: 31-59N, longitudine: 035-59E, altezza: 767 m

Osservazione

Il bollettino è stato emesso 54 minuti fa, alle 14:00 UTC
Vento 14 kt da nord-ovest
Temperature 32°C
Umidità 16%
Pressione 1016 hPa
Visibilità: 5000 m
foschia

METAR: OJAM 211400Z 31014KT 5000 HZ NSC 32/03 Q1016 NOSIG

Ora: 17:54 (14:54 UTC)

Previsione

Il bollettino è stato emesso 3 ore e 54 minuti fa, alle 11:00 UTC
Previsione valida dal 21 alle 12 UTC al 22 alle 18 UTC
Vento 10 kt da ovest/nord-ovest
Visibilità: 5000 m
foschia
Probabilità 30%
dal 21 alle 12 UTC al 21 alle 16 UTC
Vento 14 kt da nord-ovest
Visibilità: 4000 m
Temporaneamente
dal 22 alle 02 UTC al 22 alle 06 UTC
Vento 1 kt da direzioni variabili
Visibilità: 3000 m

TAF: OJAM 211100Z 2112/2218 30010KT 5000 HZ NSC PROB30 2112/2116 31014KT 4000 TEMPO 2202/2206 VRB01KT 3000

Osservazioni e previsioni meteorologiche di più di 4000 aeroporti (messaggi METAR e TAF).

Le stazioni disponibili sono rappresentate dai dischi gialli e rossi sulla carta.

Puntare il mouse per vedere il nome della stazione.

Clicca sopra per visualizzare le osservazioni e previsioni meteorologiche.

Per cambiare la mappa : fare clic sui pulsanti verdi con una croce nera per ingrandire, il pulsante verde con un trattino per diminuire, o sulla freccia verde per le mappe adiacenti.


METAR-TAF: